Marbleton, Wyoming
Current Conditions -  °F | °C
As of 10:53 PM on Tuesday 27 Jan 2015 (Local Time) from KBPI Reporting Station
Clear Clear  
Wind Chill: 21°   Ceiling: Unl
Heat Index: 21°   Visibility: 10mi
Dew Point: 18°   Wind: 3mph
Humidity: 88%   Direction: 110°ESE
Pressure: 30.16"   Gusts: NA
Location:  42.5665°N, 110.311°W
Report Text: KBPI 280553Z AUTO 11003KT 10SM CLR M06/M08 A3016 RMK AO2 SLP233 T10611078 10028 21061 55001
Loading
Personal Weather Stations






























Interactive Weather Map New forecast layout! Learn more

10-Day Weather Forecast

Advertisements
Track Severe Weather on mobile